Time;durP1;ratioP1;P1;durP2;ratioP2;P2;SDS_P1;SDS_P2;PMS_P1;PMS_P2;Temp;Humidity;BMP_temperature;BMP_pressure;BME280_temperature;BME280_humidity;BME280_pressure;Samples;Min_cycle;Max_cycle;Signal;HPM_P1;HPM_P2
2021/03/13 04:03:54;;;;;;;11.00;5.40;;;;;;;-4.96;100.00;100768.92;1741621;77;21196;-64
2021/03/13 04:06:22;;;;;;;9.60;4.92;;;;;;;-4.95;100.00;100775.64;1780272;78;21131;-63
2021/03/13 04:08:52;;;;;;;11.05;5.17;;;;;;;-4.97;100.00;100778.69;1774328;78;21181;-64
2021/03/13 04:11:21;;;;;;;9.55;5.20;;;;;;;-4.96;100.00;100780.81;1733423;81;21097;-64
2021/03/13 04:13:53;;;;;;;11.97;5.85;;;;;;;-4.95;100.00;100786.27;1762572;79;21066;-64
2021/03/13 04:16:22;;;;;;;9.78;5.60;;;;;;;-4.95;100.00;100792.17;1727362;80;21000;-64
2021/03/13 04:18:50;;;;;;;12.15;6.12;;;;;;;-4.94;100.00;100783.64;1720236;81;21078;-63
2021/03/13 04:21:18;;;;;;;12.78;6.03;;;;;;;-4.91;100.00;100789.04;1717353;81;21452;-65
2021/03/13 04:23:47;;;;;;;29.35;16.90;;;;;;;-4.89;100.00;100791.05;1718366;81;21107;-64
2021/03/13 04:26:18;;;;;;;83.15;38.40;;;;;;;-4.88;100.00;100788.91;1717482;81;21037;-64
2021/03/13 04:28:47;;;;;;;153.57;64.75;;;;;;;-4.87;100.00;100795.63;1720455;81;21095;-64
2021/03/13 04:31:24;;;;;;;163.97;73.60;;;;;;;-4.86;100.00;100796.00;1719423;81;21223;-64
2021/03/13 04:33:51;;;;;;;76.57;42.23;;;;;;;-4.84;100.00;100799.31;1717035;81;22397;-64
2021/03/13 04:36:19;;;;;;;111.17;63.33;;;;;;;-4.83;100.00;100795.86;1700307;82;21619;-63
2021/03/13 04:38:47;;;;;;;395.55;202.72;;;;;;;-4.86;100.00;100790.91;1718475;82;21018;-64
2021/03/13 04:41:14;;;;;;;58.83;41.15;;;;;;;-4.86;100.00;100787.55;1716932;82;21176;-63
2021/03/13 04:43:43;;;;;;;346.37;175.60;;;;;;;-4.84;100.00;100794.22;1719930;81;21232;-65
2021/03/13 04:46:12;;;;;;;417.68;249.88;;;;;;;-4.83;100.00;100788.23;1728069;82;21193;-63
2021/03/13 04:48:40;;;;;;;93.72;53.90;;;;;;;-4.82;100.00;100791.59;1701351;82;21625;-63
2021/03/13 04:51:09;;;;;;;23.45;13.15;;;;;;;-4.81;100.00;100786.45;1712499;82;21192;-63
2021/03/13 04:53:38;;;;;;;32.95;21.37;;;;;;;-4.79;100.00;100786.37;1702630;82;20971;-65
2021/03/13 04:56:06;;;;;;;16.48;10.75;;;;;;;-4.78;100.00;100790.10;1762489;79;21251;-64
2021/03/13 04:58:34;;;;;;;169.53;108.30;;;;;;;-4.75;100.00;100791.23;1767718;79;21352;-64
2021/03/13 05:01:02;;;;;;;201.73;126.30;;;;;;;-4.69;100.00;100787.59;1764163;79;20951;-63
2021/03/13 05:03:32;;;;;;;17.30;12.73;;;;;;;-4.61;100.00;100788.50;1764500;79;21094;-66
2021/03/13 05:05:59;;;;;;;59.40;53.20;;;;;;;-4.55;100.00;100799.64;1760727;79;21065;-64
2021/03/13 05:08:27;;;;;;;18.52;12.43;;;;;;;-4.54;100.00;100786.87;1737853;81;21173;-64
2021/03/13 05:10:55;;;;;;;27.42;15.70;;;;;;;-4.45;100.00;100788.14;1755851;81;22742;-66
2021/03/13 05:13:23;;;;;;;46.20;34.67;;;;;;;-4.45;100.00;100788.14;1692671;83;21083;-65
2021/03/13 05:15:51;;;;;;;36.58;27.95;;;;;;;-4.41;100.00;100791.73;1692620;83;21071;-64
2021/03/13 05:18:19;;;;;;;103.25;63.20;;;;;;;-4.41;100.00;100791.73;1697847;83;21235;-63
2021/03/13 05:20:47;;;;;;;110.90;70.52;;;;;;;-4.45;100.00;100788.14;1697636;83;21137;-64
2021/03/13 05:23:14;;;;;;;44.55;32.48;;;;;;;-4.45;100.00;100791.95;1686023;83;21380;-63
2021/03/13 05:25:44;;;;;;;169.75;90.90;;;;;;;-4.49;100.00;100793.81;1748019;81;21077;-65
2021/03/13 05:28:13;;;;;;;139.70;68.78;;;;;;;-4.50;100.00;100805.36;1743734;81;20991;-64
2021/03/13 05:30:41;;;;;;;60.15;32.03;;;;;;;-4.54;100.00;100798.77;1744417;80;21121;-64
2021/03/13 05:33:10;;;;;;;98.47;53.45;;;;;;;-4.59;100.00;100809.59;1752360;80;21022;-68
2021/03/13 05:35:39;;;;;;;493.02;215.68;;;;;;;-4.64;100.00;100807.27;1740009;81;21483;-65
2021/03/13 05:38:08;;;;;;;1787.53;749.48;;;;;;;-4.68;100.00;100804.05;1721393;83;21681;-64
2021/03/13 05:40:36;;;;;;;387.02;175.90;;;;;;;-4.67;100.00;100806.95;1707950;82;21137;-64
2021/03/13 05:43:04;;;;;;;253.70;116.15;;;;;;;-4.67;100.00;100806.95;1723029;82;21169;-67
2021/03/13 05:45:32;;;;;;;279.40;167.82;;;;;;;-4.62;100.00;100808.03;1713311;82;20997;-65
2021/03/13 05:48:02;;;;;;;143.13;78.55;;;;;;;-4.59;100.00;100801.95;1709806;83;21518;-67
2021/03/13 05:50:31;;;;;;;469.25;237.80;;;;;;;-4.58;100.00;100807.41;1698503;83;21151;-67
2021/03/13 05:52:58;;;;;;;266.57;124.60;;;;;;;-4.57;100.00;100811.17;1676716;83;21099;-69
2021/03/13 05:55:26;;;;;;;122.47;61.80;;;;;;;-4.56;100.00;100805.19;1685913;83;21587;-69
2021/03/13 05:57:54;;;;;;;43.65;28.85;;;;;;;-4.57;100.00;100806.09;1695311;83;21673;-68
2021/03/13 06:00:23;;;;;;;46.33;32.42;;;;;;;-4.59;100.00;100800.69;1699157;83;22212;-67
2021/03/13 06:02:51;;;;;;;26.17;14.68;;;;;;;-4.61;100.00;100799.95;1697483;83;20928;-68
2021/03/13 06:05:19;;;;;;;24.55;14.30;;;;;;;-4.63;100.00;100801.73;1708889;82;21113;-68
2021/03/13 06:07:47;;;;;;;25.82;12.68;;;;;;;-4.61;100.00;100796.14;1714899;82;21145;-69
2021/03/13 06:10:15;;;;;;;71.17;35.63;;;;;;;-4.54;100.00;100814.03;1702684;82;21207;-68
2021/03/13 06:12:44;;;;;;;187.60;88.17;;;;;;;-4.48;100.00;100804.81;1716008;82;21340;-68
2021/03/13 06:15:13;;;;;;;210.70;98.33;;;;;;;-4.43;100.00;100803.72;1711401;82;21038;-68
2021/03/13 06:18:00;;;;;;;288.15;131.78;;;;;;;-4.40;100.00;100795.09;1704766;82;21230;-70
2021/03/13 06:20:38;;;;;;;114.22;58.45;;;;;;;-4.35;100.00;100800.80;1714568;82;21065;-68
2021/03/13 06:23:32;;;;;;;34.53;21.40;;;;;;;-4.31;100.00;100801.48;1714210;82;21105;-68
2021/03/13 06:25:59;;;;;;;21.97;14.50;;;;;;;-4.21;100.00;100804.75;1680204;84;21383;-69
2021/03/13 06:28:30;;;;;;;17.02;10.30;;;;;;;-4.04;100.00;100807.75;1720537;82;20979;-69
2021/03/13 06:31:07;;;;;;;15.03;9.00;;;;;;;-3.89;100.00;100795.16;1681958;84;20966;-69
2021/03/13 06:33:35;;;;;;;76.35;48.42;;;;;;;-3.78;100.00;100796.72;1696201;83;21097;-69
2021/03/13 06:36:05;;;;;;;15.48;9.60;;;;;;;-3.70;100.00;100799.23;1694625;83;21136;-68
2021/03/13 06:38:36;;;;;;;15.00;8.00;;;;;;;-3.61;100.00;100795.84;1695650;83;21429;-69
2021/03/13 06:41:16;;;;;;;17.00;9.03;;;;;;;-3.62;100.00;100796.30;1694463;83;21017;-69
2021/03/13 06:43:50;;;;;;;14.90;9.43;;;;;;;-3.65;100.00;100787.53;1730855;81;21148;-69
2021/03/13 06:46:22;;;;;;;16.30;10.00;;;;;;;-3.68;100.00;100785.13;1677188;83;20994;-69
2021/03/13 06:48:53;;;;;;;13.28;8.35;;;;;;;-3.72;100.00;100782.37;1719911;82;21093;-68
2021/03/13 06:51:36;;;;;;;11.88;5.87;;;;;;;-3.79;100.00;100785.71;1727086;82;21244;-68
2021/03/13 06:54:08;;;;;;;14.40;7.25;;;;;;;-3.89;100.00;100778.16;1698902;81;21147;-67
2021/03/13 06:56:45;;;;;;;17.20;10.68;;;;;;;-4.00;100.00;100786.33;1720929;81;21152;-68
2021/03/13 06:59:38;;;;;;;16.87;10.10;;;;;;;-4.09;100.00;100794.86;1725365;82;21164;-68
2021/03/13 07:02:11;;;;;;;18.20;10.90;;;;;;;-4.12;100.00;100796.31;1727617;82;21244;-69
2021/03/13 07:04:44;;;;;;;13.05;9.83;;;;;;;-4.05;100.00;100788.72;1716929;82;22116;-69
2021/03/13 07:07:15;;;;;;;71.75;44.58;;;;;;;-4.05;100.00;100788.72;1719178;81;21175;-70
2021/03/13 07:09:59;;;;;;;137.75;91.45;;;;;;;-4.00;100.00;100782.51;1708955;83;21592;-70
2021/03/13 07:12:39;;;;;;;226.95;148.55;;;;;;;-3.89;100.00;100793.89;1696932;82;20930;-70
2021/03/13 07:15:24;;;;;;;92.53;63.00;;;;;;;-3.87;100.00;100800.53;1728614;82;21175;-70
2021/03/13 07:17:58;;;;;;;67.92;47.27;;;;;;;-3.86;100.00;100798.80;1726648;82;21379;-71
2021/03/13 07:20:29;;;;;;;132.72;98.35;;;;;;;-3.83;100.00;100803.30;1717875;82;20999;-72
2021/03/13 07:22:58;;;;;;;18.57;13.78;;;;;;;-3.81;100.00;100797.69;1713460;82;20896;-72
2021/03/13 07:25:28;;;;;;;15.15;11.03;;;;;;;-3.75;100.00;100796.53;1710363;82;20945;-70
2021/03/13 07:27:59;;;;;;;17.15;11.33;;;;;;;-3.71;100.00;100803.97;1687681;83;20959;-74
2021/03/13 07:30:27;;;;;;;17.15;13.22;;;;;;;-3.71;100.00;100798.05;1680221;83;21204;-71
2021/03/13 07:33:01;;;;;;;15.43;10.58;;;;;;;-3.71;100.00;100802.70;1682006;83;22530;-72
2021/03/13 07:35:34;;;;;;;16.23;10.18;;;;;;;-3.68;100.00;100801.23;1686876;83;21211;-69
2021/03/13 07:38:04;;;;;;;32.30;25.02;;;;;;;-3.68;100.00;100806.79;1693359;83;21018;-69
2021/03/13 07:40:33;;;;;;;38.70;26.02;;;;;;;-3.66;100.00;100799.91;1683273;83;21169;-73
2021/03/13 07:43:02;;;;;;;34.92;30.25;;;;;;;-3.61;100.00;100801.75;1671973;85;21252;-74
2021/03/13 07:45:33;;;;;;;51.77;39.27;;;;;;;-3.52;100.00;100799.20;1697994;83;21011;-72
2021/03/13 07:48:01;;;;;;;17.12;13.05;;;;;;;-3.45;100.00;100794.98;1698988;82;21180;-69
2021/03/13 07:50:29;;;;;;;14.87;9.33;;;;;;;-3.37;100.00;100790.76;1688283;83;21070;-71
2021/03/13 07:52:58;;;;;;;19.80;12.05;;;;;;;-3.33;100.00;100785.02;1671053;84;21076;-73
2021/03/13 07:55:28;;;;;;;16.80;10.48;;;;;;;-3.27;100.00;100782.98;1680259;83;21212;-75
2021/03/13 07:57:56;;;;;;;17.87;11.65;;;;;;;-3.24;100.00;100781.55;1682902;83;21190;-71
2021/03/13 08:00:45;;;;;;;21.20;13.10;;;;;;;-3.19;100.00;100785.12;1706637;82;21112;-73
2021/03/13 08:03:37;;;;;;;19.85;11.93;;;;;;;-3.10;100.00;100781.27;1677071;84;21136;-74
2021/03/13 08:06:14;;;;;;;18.12;12.15;;;;;;;-3.03;100.00;100774.48;1690372;83;21232;-73
2021/03/13 08:08:47;;;;;;;23.45;12.07;;;;;;;-3.04;100.00;100778.38;1685379;83;21445;-69
2021/03/13 08:11:19;;;;;;;23.35;12.40;;;;;;;-3.08;100.00;100779.45;1682995;83;21105;-69
2021/03/13 08:13:55;;;;;;;16.07;8.95;;;;;;;-3.09;100.00;100788.01;1695168;83;22288;-69
2021/03/13 08:16:37;;;;;;;15.98;9.83;;;;;;;-3.15;100.00;100781.50;1680087;83;21140;-70
2021/03/13 08:19:29;;;;;;;17.00;10.50;;;;;;;-3.24;100.00;100784.09;1689745;83;21146;-69
2021/03/13 08:22:17;;;;;;;18.73;10.50;;;;;;;-3.26;100.00;100777.42;1682385;83;21392;-70
2021/03/13 08:24:54;;;;;;;16.40;9.25;;;;;;;-3.25;100.00;100781.19;1685082;83;21242;-71
2021/03/13 08:27:42;;;;;;;20.85;10.80;;;;;;;-3.24;100.00;100780.27;1691736;83;21125;-70
2021/03/13 08:30:19;;;;;;;17.30;11.40;;;;;;;-3.25;100.00;100786.73;1690162;83;21227;-70
2021/03/13 08:33:02;;;;;;;35.92;26.27;;;;;;;-3.29;100.00;100776.33;1684156;83;21113;-70
2021/03/13 08:35:44;;;;;;;98.75;60.65;;;;;;;-3.28;100.00;100773.69;1692149;83;21204;-70
2021/03/13 08:38:13;;;;;;;207.30;119.95;;;;;;;-3.23;100.00;100774.26;1687358;83;21157;-71
2021/03/13 08:40:51;;;;;;;103.92;59.18;;;;;;;-3.19;100.00;100771.91;1683052;83;21049;-71
2021/03/13 08:43:36;;;;;;;100.10;55.60;;;;;;;-3.11;100.00;100761.30;1685884;83;21580;-70
2021/03/13 08:46:27;;;;;;;293.82;151.55;;;;;;;-3.06;100.00;100762.34;1694247;83;21067;-70
2021/03/13 08:48:58;;;;;;;204.57;109.15;;;;;;;-3.01;100.00;100759.09;1680351;83;22283;-70
2021/03/13 08:51:27;;;;;;;226.45;129.50;;;;;;;-2.97;100.00;100767.75;1660234;84;20963;-70
2021/03/13 08:53:55;;;;;;;191.60;106.83;;;;;;;-2.97;100.00;100771.58;1745058;80;20927;-71
2021/03/13 08:56:42;;;;;;;281.35;157.55;;;;;;;-2.99;100.00;100770.86;1745178;80;21123;-68
2021/03/13 08:59:17;;;;;;;47.05;31.75;;;;;;;-3.01;100.00;100776.94;1750768;80;21196;-70
2021/03/13 09:02:04;;;;;;;32.85;19.90;;;;;;;-3.05;100.00;100774.19;1729886;80;21190;-73
2021/03/13 09:04:34;;;;;;;240.72;144.57;;;;;;;-3.02;100.00;100776.58;1725125;80;21240;-73
2021/03/13 09:07:03;;;;;;;342.73;167.77;;;;;;;-2.98;100.00;100775.50;1739989;80;21606;-71
2021/03/13 09:09:33;;;;;;;102.42;58.58;;;;;;;-2.95;100.00;100776.16;1737415;80;21105;-71
2021/03/13 09:12:09;;;;;;;26.05;18.37;;;;;;;-2.90;100.00;100772.08;1734753;80;21145;-72
2021/03/13 09:14:40;;;;;;;60.45;48.95;;;;;;;-2.89;100.00;100774.98;1755866;80;22117;-72
2021/03/13 09:17:10;;;;;;;28.73;20.17;;;;;;;-2.92;100.00;100775.15;1741356;80;21179;-74
2021/03/13 09:19:39;;;;;;;120.55;81.90;;;;;;;-2.90;100.00;100773.34;1760990;80;20930;-73
2021/03/13 09:22:25;;;;;;;75.32;52.00;;;;;;;-2.86;100.00;100778.66;1731981;80;21218;-71
2021/03/13 09:25:01;;;;;;;400.32;300.18;;;;;;;-2.80;100.00;100773.22;1740845;80;21466;-70
2021/03/13 09:27:32;;;;;;;43.80;33.45;;;;;;;-2.71;100.00;100770.61;1742603;80;21301;-73
2021/03/13 09:29:59;;;;;;;47.48;39.40;;;;;;;-2.65;100.00;100765.17;1743245;80;21204;-69
2021/03/13 09:32:27;;;;;;;24.30;18.07;;;;;;;-2.58;100.00;100765.17;1743308;80;21085;-70
2021/03/13 09:34:55;;;;;;;29.72;21.93;;;;;;;-2.51;100.00;100765.66;1736573;80;21070;-70
2021/03/13 09:37:29;;;;;;;16.17;11.95;;;;;;;-2.49;100.00;100767.22;1738754;80;21648;-69
2021/03/13 09:40:13;;;;;;;17.67;13.72;;;;;;;-2.49;100.00;100762.58;1737120;80;21262;-70
2021/03/13 09:42:45;;;;;;;17.75;13.05;;;;;;;-2.50;100.00;100764.31;1742718;80;21014;-68
2021/03/13 09:45:21;;;;;;;20.30;14.78;;;;;;;-2.46;100.00;100763.69;1745458;80;21173;-71
2021/03/13 09:47:59;;;;;;;19.17;13.48;;;;;;;-2.46;100.00;100770.06;1741739;80;22170;-67
2021/03/13 09:50:37;;;;;;;55.88;45.52;;;;;;;-2.46;100.00;100764.96;1739970;80;20959;-69
2021/03/13 09:53:10;;;;;;;34.90;27.37;;;;;;;-2.47;100.00;100756.45;1734650;80;21210;-69
2021/03/13 09:55:41;;;;;;;91.35;64.40;;;;;;;-2.45;100.00;100748.27;1741715;80;21591;-70
2021/03/13 09:58:08;;;;;;;128.55;86.97;;;;;;;-2.39;100.00;100750.91;1732880;80;21184;-70
2021/03/13 10:00:42;;;;;;;99.87;69.75;;;;;;;-2.36;100.00;100749.47;1745453;80;21074;-68
2021/03/13 10:03:17;;;;;;;126.92;95.17;;;;;;;-2.32;100.00;100750.11;1736415;80;21223;-69
2021/03/13 10:05:51;;;;;;;38.63;31.12;;;;;;;-2.30;100.00;100752.95;1746346;80;21198;-70
2021/03/13 10:08:19;;;;;;;110.72;83.00;;;;;;;-2.30;100.00;100750.41;1741797;80;21093;-68
2021/03/13 10:10:49;;;;;;;96.42;72.25;;;;;;;-2.28;100.00;100754.95;1739337;80;21078;-70
2021/03/13 10:13:18;;;;;;;;;;;;;;;-2.28;100.00;100749.84;1732510;80;20923;-68
2021/03/13 10:15:46;;;;;;;52.70;34.15;;;;;;;-2.24;100.00;100754.32;1736483;80;20596;-68
2021/03/13 10:18:19;;;;;;;36.45;23.32;;;;;;;-2.22;100.00;100753.33;1726894;80;21216;-73
2021/03/13 10:20:53;;;;;;;37.08;25.55;;;;;;;-2.17;100.00;100754.80;1743168;80;22231;-69
2021/03/13 10:23:35;;;;;;;39.65;27.37;;;;;;;-2.17;100.00;100749.69;1727606;80;21030;-68
2021/03/13 10:26:13;;;;;;;24.67;17.15;;;;;;;-2.18;100.00;100748.87;1733397;80;20955;-68
2021/03/13 10:28:48;;;;;;;26.37;19.40;;;;;;;-2.18;100.00;100743.77;1731690;80;21156;-70
2021/03/13 10:31:19;;;;;;;21.75;14.25;;;;;;;-2.17;100.00;100740.75;1729213;80;21388;-68
2021/03/13 10:33:50;;;;;;;33.28;21.12;;;;;;;-2.15;100.00;100732.55;1726632;80;21063;-67
2021/03/13 10:36:19;;;;;;;30.55;23.22;;;;;;;-2.17;100.00;100735.64;1735036;80;21220;-68
2021/03/13 10:38:50;;;;;;;30.00;24.85;;;;;;;-2.19;100.00;100733.65;1732073;80;21063;-70
2021/03/13 10:41:25;;;;;;;60.40;37.88;;;;;;;-2.19;100.00;100731.09;1727275;80;21062;-72
2021/03/13 10:43:56;;;;;;;73.62;42.85;;;;;;;-2.19;100.00;100731.09;1743780;79;21292;-70
2021/03/13 10:46:25;;;;;;;47.35;32.85;;;;;;;-2.18;100.00;100731.45;1732614;80;20967;-68
2021/03/13 10:48:58;;;;;;;1020.62;482.05;;;;;;;-2.17;100.00;100724.15;1734336;80;21019;-68
2021/03/13 10:54:28;;;;;;;194.83;100.30;;;;;;;-2.15;100.00;100710.39;1834405;78;22740;-68
2021/03/13 10:56:57;;;;;;;637.83;366.85;;;;;;;-2.21;100.00;100706.45;1787462;78;20938;-68
2021/03/13 10:59:32;;;;;;;90.83;49.30;;;;;;;-2.18;100.00;100704.64;1800005;79;21613;-68
2021/03/13 11:02:00;;;;;;;153.40;85.53;;;;;;;-2.18;100.00;100700.34;1795115;78;21002;-68
2021/03/13 11:04:27;;;;;;;218.12;119.25;;;;;;;-2.17;100.00;100698.61;1806410;78;20974;-69
2021/03/13 11:06:57;;;;;;;174.07;89.97;;;;;;;-2.13;100.00;100695.78;1805850;79;21503;-68
2021/03/13 11:09:25;;;;;;;226.95;122.13;;;;;;;-2.09;100.00;100688.30;1809406;79;21172;-68
2021/03/13 11:11:52;;;;;;;380.98;239.97;;;;;;;-2.06;100.00;100691.13;1805310;79;21072;-68
2021/03/13 11:14:22;;;;;;;85.45;54.90;;;;;;;-2.05;100.00;100688.94;1806968;79;21621;-68
2021/03/13 11:16:51;;;;;;;42.43;31.35;;;;;;;-2.05;100.00;100683.37;1801831;79;20943;-69
2021/03/13 11:19:19;;;;;;;35.03;24.25;;;;;;;-2.05;100.00;100682.09;1804528;79;22489;-69
2021/03/13 11:21:47;;;;;;;29.77;21.85;;;;;;;-2.03;100.00;100680.73;1800481;79;21619;-69
2021/03/13 11:24:15;;;;;;;23.42;15.20;;;;;;;-1.99;100.00;100677.09;1794125;78;21540;-69
2021/03/13 11:26:43;;;;;;;29.80;19.60;;;;;;;-1.90;100.00;100679.53;1794484;79;21535;-69
2021/03/13 11:29:10;;;;;;;27.32;17.15;;;;;;;-1.81;100.00;100681.09;1805996;79;21503;-69
2021/03/13 11:31:38;;;;;;;28.85;18.27;;;;;;;-1.78;100.00;100678.36;1801440;78;22515;-69
2021/03/13 11:34:06;;;;;;;22.40;14.35;;;;;;;-1.79;100.00;100680.52;1746713;81;21062;-69
2021/03/13 11:36:34;;;;;;;23.98;15.72;;;;;;;-1.80;100.00;100687.83;1754310;80;22772;-68
2021/03/13 11:39:06;;;;;;;25.15;14.75;;;;;;;-1.85;100.00;100670.70;1756895;80;21072;-69
2021/03/13 11:41:33;;;;;;;26.42;15.93;;;;;;;-1.88;100.00;100670.87;1737392;80;20982;-68
2021/03/13 11:44:01;;;;;;;25.23;15.85;;;;;;;-1.89;100.00;100674.35;1741295;81;21716;-69
2021/03/13 11:46:30;;;;;;;23.92;15.00;;;;;;;-1.91;100.00;100674.89;1740961;81;21596;-69
2021/03/13 11:49:00;;;;;;;22.52;13.90;;;;;;;-1.92;100.00;100674.99;1745544;81;21111;-68
2021/03/13 11:51:29;;;;;;;23.22;14.73;;;;;;;-1.93;100.00;100678.01;1754161;81;21034;-68
2021/03/13 11:53:56;;;;;;;21.85;12.85;;;;;;;-1.91;100.00;100672.33;1738773;81;21030;-68
2021/03/13 11:56:25;;;;;;;30.20;16.65;;;;;;;-1.86;100.00;100669.48;1748927;81;21078;-68
2021/03/13 11:58:53;;;;;;;30.32;16.45;;;;;;;-1.83;100.00;100671.87;1740648;81;20899;-70
2021/03/13 12:01:21;;;;;;;28.02;14.47;;;;;;;-1.82;100.00;100670.52;1797686;79;21204;-68
2021/03/13 12:03:49;;;;;;;26.80;15.85;;;;;;;-1.80;100.00;100659.73;1780682;79;21007;-68
2021/03/13 12:06:17;;;;;;;23.67;13.95;;;;;;;-1.75;100.00;100667.10;1771775;79;21011;-68
2021/03/13 12:08:48;;;;;;;24.98;15.60;;;;;;;-1.67;100.00;100664.08;1786665;79;21612;-67
2021/03/13 12:11:16;;;;;;;23.40;14.83;;;;;;;-1.66;100.00;100669.58;1781874;79;21089;-69
2021/03/13 12:13:47;;;;;;;21.60;14.85;;;;;;;-1.65;100.00;100658.42;1787511;79;21375;-68
2021/03/13 12:16:15;;;;;;;21.48;14.53;;;;;;;-1.63;100.00;100665.09;1787468;79;21489;-67
2021/03/13 12:18:43;;;;;;;29.42;18.98;;;;;;;-1.61;100.00;100668.83;1784735;79;20928;-67
2021/03/13 12:21:11;;;;;;;22.45;14.60;;;;;;;-1.57;100.00;100667.72;1754168;80;21106;-68
2021/03/13 12:23:40;;;;;;;23.57;15.58;;;;;;;-1.53;100.00;100670.45;1734610;81;21102;-68
2021/03/13 12:26:08;;;;;;;25.37;15.35;;;;;;;-1.50;100.00;100663.41;1731950;82;21146;-67
2021/03/13 12:28:36;;;;;;;24.18;17.00;;;;;;;-1.44;100.00;100665.20;1746735;80;21173;-67
2021/03/13 12:31:04;;;;;;;25.35;14.73;;;;;;;-1.41;100.00;100667.11;1750726;80;21924;-68
2021/03/13 12:33:32;;;;;;;24.90;15.72;;;;;;;-1.37;100.00;100666.47;1755750;81;20999;-67
2021/03/13 12:36:00;;;;;;;29.07;16.82;;;;;;;-1.34;100.00;100664.54;1752284;81;21912;-67
2021/03/13 12:38:28;;;;;;;24.30;15.35;;;;;;;-1.32;100.00;100660.16;1751264;81;21202;-67
2021/03/13 12:40:57;;;;;;;27.62;16.35;;;;;;;-1.29;100.00;100664.24;1750204;81;21066;-67
2021/03/13 12:43:25;;;;;;;29.90;18.82;;;;;;;-1.26;100.00;100666.61;1757679;81;20959;-68
2021/03/13 12:45:54;;;;;;;38.67;20.35;;;;;;;-1.23;100.00;100667.70;1753617;81;21205;-68
2021/03/13 12:48:23;;;;;;;28.25;17.17;;;;;;;-1.21;100.00;100662.05;1758120;80;21075;-68
2021/03/13 12:50:52;;;;;;;43.05;22.52;;;;;;;-1.16;100.00;100668.96;1745859;81;22529;-66
2021/03/13 12:53:20;;;;;;;30.88;17.32;;;;;;;-1.15;100.00;100664.66;1749944;81;21027;-67
2021/03/13 12:55:48;;;;;;;34.23;19.87;;;;;;;-1.15;100.00;100667.22;1756797;81;20968;-67
2021/03/13 12:58:37;;;;;;;30.32;16.80;;;;;;;-1.18;100.00;100669.50;1742756;79;21062;-68
2021/03/13 13:01:05;;;;;;;33.45;19.35;;;;;;;-1.20;100.00;100668.80;1749659;79;21484;-68
2021/03/13 13:03:33;;;;;;;28.73;18.12;;;;;;;-1.17;100.00;100674.19;1750909;80;21400;-67
2021/03/13 13:06:01;;;;;;;33.20;20.30;;;;;;;-1.14;100.00;100669.67;1749438;79;21029;-68
2021/03/13 13:08:30;;;;;;;47.62;26.97;;;;;;;-1.11;100.00;100666.10;1751962;79;21018;-68
2021/03/13 13:10:59;;;;;;;209.10;107.22;;;;;;;-1.10;100.00;100671.14;1731345;79;21002;-68
2021/03/13 13:13:27;;;;;;;359.73;143.17;;;;;;;-1.05;100.00;100681.07;1751294;79;21209;-67
2021/03/13 13:16:00;;;;;;;883.53;363.87;;;;;;;-1.03;100.00;100676.20;1763237;79;21303;-68
2021/03/13 13:18:30;;;;;;;1006.45;447.20;;;;;;;-1.05;100.00;100677.23;1760735;79;21038;-68
2021/03/13 13:20:59;;;;;;;542.72;317.50;;;;;;;-1.05;100.00;100675.95;1743928;79;21251;-68
2021/03/13 13:23:28;;;;;;;175.57;94.42;;;;;;;-1.05;100.00;100674.22;1723848;81;20999;-68
2021/03/13 13:25:57;;;;;;;51.02;32.28;;;;;;;-1.04;100.00;100671.19;1737848;81;21164;-68
2021/03/13 13:28:25;;;;;;;55.90;39.27;;;;;;;-1.05;100.00;100669.09;1749366;80;22208;-68
2021/03/13 13:30:55;;;;;;;36.03;24.00;;;;;;;-1.07;100.00;100667.08;1747660;79;21496;-69
2021/03/13 13:33:24;;;;;;;31.23;20.62;;;;;;;-1.10;100.00;100662.62;1739584;80;20937;-68
2021/03/13 13:35:52;;;;;;;54.55;36.42;;;;;;;-1.12;100.00;100670.87;1762955;79;21500;-70
2021/03/13 13:38:21;;;;;;;73.52;45.70;;;;;;;-1.13;100.00;100666.67;1734959;80;21019;-69
2021/03/13 13:40:49;;;;;;;51.20;33.92;;;;;;;-1.11;100.00;100670.75;1754679;79;21576;-70
2021/03/13 13:43:18;;;;;;;104.60;69.90;;;;;;;-1.12;100.00;100669.12;1767940;81;21208;-71
2021/03/13 13:45:46;;;;;;;45.30;27.37;;;;;;;-1.12;100.00;100669.12;1746540;79;20943;-67
2021/03/13 13:48:15;;;;;;;47.43;31.10;;;;;;;-1.10;100.00;100664.74;1761133;81;20933;-69
2021/03/13 13:50:44;;;;;;;33.50;19.48;;;;;;;-1.08;100.00;100664.63;1750127;79;21265;-68
2021/03/13 13:53:12;;;;;;;60.35;41.50;;;;;;;-1.06;100.00;100662.78;1737066;81;21689;-66
2021/03/13 13:55:43;;;;;;;58.42;40.83;;;;;;;-1.07;100.00;100663.25;1758360;80;21019;-67
2021/03/13 13:58:12;;;;;;;57.17;33.40;;;;;;;-1.08;100.00;100663.35;1771550;80;21003;-67
2021/03/13 14:00:41;;;;;;;59.03;30.52;;;;;;;-1.10;100.00;100667.30;1774411;80;21129;-66
2021/03/13 14:03:11;;;;;;;63.13;36.23;;;;;;;-1.11;100.00;100664.83;1765300;80;21224;-67
2021/03/13 14:05:42;;;;;;;52.65;33.67;;;;;;;-1.11;100.00;100660.52;1767152;80;21448;-71
2021/03/13 14:08:09;;;;;;;106.75;65.05;;;;;;;-1.12;100.00;100660.17;1754394;81;21222;-68
2021/03/13 14:10:39;;;;;;;90.55;50.85;;;;;;;-1.15;100.00;100659.55;1767934;80;21303;-69
2021/03/13 14:13:07;;;;;;;121.40;66.22;;;;;;;-1.17;100.00;100655.81;1785602;80;21359;-68
2021/03/13 14:15:35;;;;;;;82.35;41.18;;;;;;;-1.17;100.00;100653.72;1776747;80;21204;-68
2021/03/13 14:18:06;;;;;;;113.00;71.85;;;;;;;-1.15;100.00;100660.82;1758734;80;21378;-68
2021/03/13 14:20:35;;;;;;;82.00;45.33;;;;;;;-1.16;100.00;100657.91;1775329;80;21073;-68
2021/03/13 14:23:03;;;;;;;74.67;33.20;;;;;;;-1.18;100.00;100654.62;1780805;80;21066;-68
2021/03/13 14:25:31;;;;;;;85.90;41.13;;;;;;;-1.18;100.00;100649.04;1776995;80;21169;-67
2021/03/13 14:27:58;;;;;;;52.67;30.95;;;;;;;-1.15;100.00;100645.01;1773809;80;21144;-70
2021/03/13 14:30:28;;;;;;;49.77;28.00;;;;;;;-1.14;100.00;100653.03;1766405;80;21480;-66
2021/03/13 14:32:58;;;;;;;31.10;20.82;;;;;;;-1.13;100.00;100644.94;1738015;82;21109;-68
2021/03/13 14:35:27;;;;;;;33.60;20.32;;;;;;;-1.12;100.00;100650.40;1740175;81;21154;-69
2021/03/13 14:37:55;;;;;;;47.20;25.17;;;;;;;-1.14;100.00;100647.92;1758282;80;21201;-69
2021/03/13 14:40:24;;;;;;;42.27;24.75;;;;;;;-1.18;100.00;100645.20;1777911;80;22440;-69
2021/03/13 14:42:52;;;;;;;70.12;28.50;;;;;;;-1.18;100.00;100645.66;1750309;81;21275;-72
2021/03/13 14:45:21;;;;;;;48.60;22.77;;;;;;;-1.19;100.00;100646.13;1777277;80;21670;-66
2021/03/13 14:47:51;;;;;;;51.20;32.00;;;;;;;-1.23;100.00;100646.78;1757018;80;20966;-67
2021/03/13 14:50:20;;;;;;;441.88;278.40;;;;;;;-1.29;100.00;100639.52;1772765;80;21069;-68
2021/03/13 14:52:48;;;;;;;149.40;77.45;;;;;;;-1.32;100.00;100638.89;1750924;80;21144;-68
2021/03/13 14:55:18;;;;;;;331.98;167.68;;;;;;;-1.36;100.00;100639.54;1732217;82;21560;-68
2021/03/13 14:57:47;;;;;;;251.73;117.67;;;;;;;-1.40;100.00;100638.09;1804514;78;20962;-68
2021/03/13 15:00:20;;;;;;;312.77;145.90;;;;;;;-1.42;100.00;100638.64;1786241;79;21196;-70
2021/03/13 15:02:49;;;;;;;301.90;138.03;;;;;;;-1.43;100.00;100645.14;1798729;79;21014;-69
2021/03/13 15:05:18;;;;;;;356.20;179.87;;;;;;;-1.47;100.00;100638.12;1799028;79;21611;-67
2021/03/13 15:07:51;;;;;;;155.37;79.10;;;;;;;-1.49;100.00;100645.05;1786849;78;21192;-68
2021/03/13 15:10:21;;;;;;;140.77;75.90;;;;;;;-1.52;100.00;100638.38;1801364;78;20989;-70
2021/03/13 15:12:51;;;;;;;181.65;109.75;;;;;;;-1.55;100.00;100635.23;1791916;79;21140;-67
2021/03/13 15:15:25;;;;;;;683.55;391.82;;;;;;;-1.57;100.00;100637.04;1808381;78;21108;-68
2021/03/13 15:17:54;;;;;;;280.45;160.67;;;;;;;-1.62;100.00;100635.24;1792611;78;22304;-67
2021/03/13 15:20:22;;;;;;;78.37;39.63;;;;;;;-1.67;100.00;100634.69;1802586;79;21477;-69
2021/03/13 15:22:50;;;;;;;166.37;94.17;;;;;;;-1.71;100.00;100635.33;1802875;79;21005;-67